Time;durP1;ratioP1;P1;durP2;ratioP2;P2;SDS_P1;SDS_P2;PMS_P1;PMS_P2;Temp;Humidity;BMP_temperature;BMP_pressure;BME280_temperature;BME280_humidity;BME280_pressure;Samples;Min_cycle;Max_cycle;Signal;HPM_P1;HPM_P2
2021/09/10 00:00:28;;;;;;;;;;;;;;;21.90;54.41;101376.34;2075267;28;776;-68
2021/09/10 00:01:28;;;;;;;;;;;;;;;21.90;54.43;101376.34;2075356;28;1425;-66
2021/09/10 00:02:28;;;;;;;;;;;;;;;21.87;54.19;101380.03;2078836;28;2384;-68
2021/09/10 00:03:28;;;;;;;;;;;;;;;21.89;54.60;101374.56;2081152;28;1738;-67
2021/09/10 00:04:28;;;;;;;;;;;;;;;21.85;54.19;101380.97;2083306;28;855;-68
2021/09/10 00:05:28;;;;;;;;;;;;;;;21.88;54.50;101384.50;2083418;28;820;-67
2021/09/10 00:06:29;;;;;;;;;;;;;;;21.88;54.63;101378.19;2083064;28;1427;-67
2021/09/10 00:07:29;;;;;;;;;;;;;;;21.90;53.68;101381.72;2076269;28;1819;-67
2021/09/10 00:08:29;;;;;;;;;;;;;;;21.88;54.40;101389.88;2076233;28;1889;-66
2021/09/10 00:09:29;;;;;;;;;;;;;;;21.85;54.89;101384.59;2083111;28;1348;-68
2021/09/10 00:10:31;;;;;;;;;;;;;;;21.87;54.54;101388.13;2083276;28;1910;-66
2021/09/10 00:11:31;;;;;;;;;;;;;;;21.88;54.49;101386.28;2082658;28;1621;-66
2021/09/10 00:12:31;;;;;;;;;;;;;;;21.85;54.26;101384.59;2075084;28;815;-66
2021/09/10 00:13:31;;;;;;;;;;;;;;;21.85;53.92;101387.28;2075146;28;1024;-67
2021/09/10 00:14:31;;;;;;;;;;;;;;;21.86;53.63;101391.75;2074982;28;986;-66
2021/09/10 00:15:32;;;;;;;;;;;;;;;21.86;54.03;101388.16;2075264;28;756;-66
2021/09/10 00:16:32;;;;;;;;;;;;;;;21.87;53.91;101396.22;2076493;28;1494;-67
2021/09/10 00:17:32;;;;;;;;;;;;;;;21.86;54.06;101390.84;2083158;28;969;-66
2021/09/10 00:18:32;;;;;;;;;;;;;;;21.85;54.52;101391.78;2082984;28;1208;-66
2021/09/10 00:19:32;;;;;;;;;;;;;;;21.85;54.54;101394.47;2082537;28;1448;-66
2021/09/10 00:20:32;;;;;;;;;;;;;;;21.85;54.73;101394.47;2074725;28;1498;-68
2021/09/10 00:21:33;;;;;;;;;;;;;;;21.85;54.57;101399.84;2078473;28;1555;-65
2021/09/10 00:22:33;;;;;;;;;;;;;;;21.85;54.61;101406.16;2082823;28;1570;-67
2021/09/10 00:23:33;;;;;;;;;;;;;;;21.86;54.16;101404.31;2083173;28;976;-66
2021/09/10 00:24:34;;;;;;;;;;;;;;;21.86;53.67;101404.31;2083177;28;1020;-67
2021/09/10 00:25:34;;;;;;;;;;;;;;;21.86;54.59;101412.41;2083286;28;834;-65
2021/09/10 00:26:34;;;;;;;;;;;;;;;21.84;54.35;101419.66;2083236;28;848;-66
2021/09/10 00:27:34;;;;;;;;;;;;;;;21.85;54.80;101421.44;2082412;28;1595;-66
2021/09/10 00:28:35;;;;;;;;;;;;;;;21.82;54.93;101421.53;2075090;28;944;-65
2021/09/10 00:29:35;;;;;;;;;;;;;;;21.84;54.23;101433.16;2074955;28;973;-66
2021/09/10 00:30:35;;;;;;;;;;;;;;;21.84;54.49;101423.25;2075653;28;1960;-66
2021/09/10 00:31:35;;;;;;;;;;;;;;;21.84;54.69;101427.75;2082881;28;1414;-66
2021/09/10 00:32:35;;;;;;;;;;;;;;;21.81;54.70;101422.47;2083127;28;1016;-65
2021/09/10 00:33:35;;;;;;;;;;;;;;;21.82;54.24;101426.91;2083060;28;760;-66
2021/09/10 00:34:36;;;;;;;;;;;;;;;21.82;53.88;101427.81;2083211;28;905;-64
2021/09/10 00:35:36;;;;;;;;;;;;;;;21.82;54.45;101437.72;2082928;28;1008;-66
2021/09/10 00:36:36;;;;;;;;;;;;;;;21.85;53.89;101438.53;2082793;28;1425;-65
2021/09/10 00:37:36;;;;;;;;;;;;;;;21.84;54.02;101433.16;2079027;28;1596;-65
2021/09/10 00:38:36;;;;;;;;;;;;;;;21.83;54.21;101434.09;2074848;28;1399;-65
2021/09/10 00:39:36;;;;;;;;;;;;;;;21.82;54.50;101437.72;2078778;28;1414;-65
2021/09/10 00:40:36;;;;;;;;;;;;;;;21.82;54.61;101437.72;2083167;28;1178;-66
2021/09/10 00:41:37;;;;;;;;;;;;;;;21.82;54.53;101438.59;2082752;28;1279;-65
2021/09/10 00:42:37;;;;;;;;;;;;;;;21.84;54.23;101430.44;2082990;28;1585;-66
2021/09/10 00:43:37;;;;;;;;;;;;;;;21.82;54.13;101433.22;2083120;28;776;-65
2021/09/10 00:44:37;;;;;;;;;;;;;;;21.81;54.16;101439.53;2083242;28;1035;-66
2021/09/10 00:45:47;;;;;;;;;;;;;;;21.80;54.57;101440.47;2083102;28;969;-65
2021/09/10 00:46:47;;;;;;;;;;;;;;;21.81;54.55;101434.16;2083038;28;881;-65
2021/09/10 00:47:48;;;;;;;;;;;;;;;21.83;54.58;101436.78;2078755;28;1707;-65
2021/09/10 00:48:49;;;;;;;;;;;;;;;21.80;54.57;101436.88;2079029;28;1427;-65
2021/09/10 00:49:50;;;;;;;;;;;;;;;21.80;53.90;101432.38;2082357;28;1600;-66
2021/09/10 00:50:50;;;;;;;;;;;;;;;21.80;54.71;101444.97;2083061;28;1956;-65
2021/09/10 00:51:51;;;;;;;;;;;;;;;21.79;54.68;101436.00;2083068;28;848;-66
2021/09/10 00:52:51;;;;;;;;;;;;;;;21.80;54.38;101435.06;2083074;28;771;-65
2021/09/10 00:53:51;;;;;;;;;;;;;;;21.81;54.53;101435.94;2083032;28;988;-65
2021/09/10 00:54:51;;;;;;;;;;;;;;;21.81;54.53;101436.84;2082515;28;1432;-64
2021/09/10 00:55:52;;;;;;;;;;;;;;;21.78;54.85;101445.00;2082872;28;799;-67
2021/09/10 00:56:52;;;;;;;;;;;;;;;21.79;54.95;101437.78;2076110;28;1723;-65
2021/09/10 00:57:52;;;;;;;;;;;;;;;21.80;54.21;101436.88;2074945;28;875;-65
2021/09/10 00:58:54;;;;;;;;;;;;;;;21.80;53.88;101450.34;2074934;28;807;-65
2021/09/10 00:59:54;;;;;;;;;;;;;;;21.79;53.88;101446.78;2076543;28;768;-65
2021/09/10 01:00:54;;;;;;;;;;;;;;;21.78;54.19;101450.41;2076218;28;1110;-65
2021/09/10 01:01:54;;;;;;;;;;;;;;;21.79;54.48;101451.28;2080495;28;1866;-65
2021/09/10 01:02:55;;;;;;;;;;;;;;;21.81;54.24;101442.22;2076567;28;819;-67
2021/09/10 01:03:55;;;;;;;;;;;;;;;21.79;54.10;101436.00;2076620;28;854;-64
2021/09/10 01:04:55;;;;;;;;;;;;;;;21.79;53.79;101443.19;2076501;28;1334;-66
2021/09/10 01:05:57;;;;;;;;;;;;;;;21.79;54.10;101443.19;2076512;28;1040;-65
2021/09/10 01:06:58;;;;;;;;;;;;;;;21.80;53.88;101435.06;2076574;28;1524;-65
2021/09/10 01:07:59;;;;;;;;;;;;;;;21.77;54.63;101430.66;2076484;28;1725;-65
2021/09/10 01:09:00;;;;;;;;;;;;;;;21.79;54.69;101438.69;2076109;28;1862;-65
2021/09/10 01:10:01;;;;;;;;;;;;;;;21.78;54.36;101434.22;2076553;28;1084;-67
2021/09/10 01:11:01;;;;;;;;;;;;;;;21.76;54.95;101439.69;2076328;28;1973;-64
2021/09/10 01:12:02;;;;;;;;;;;;;;;21.79;54.80;101437.78;2080496;28;1726;-65
2021/09/10 01:13:02;;;;;;;;;;;;;;;21.78;54.33;101445.00;2084646;28;1639;-65
2021/09/10 01:14:02;;;;;;;;;;;;;;;21.77;53.95;101436.06;2084552;28;793;-65
2021/09/10 01:15:03;;;;;;;;;;;;;;;21.77;54.04;101445.94;2084369;28;1667;-65
2021/09/10 01:16:03;;;;;;;;;;;;;;;21.79;53.92;101453.97;2076504;28;1541;-66
2021/09/10 01:17:03;;;;;;;;;;;;;;;21.78;54.10;101442.31;2076250;28;1397;-67
2021/09/10 01:18:03;;;;;;;;;;;;;;;21.78;54.72;101442.31;2076358;28;768;-65
2021/09/10 01:19:04;;;;;;;;;;;;;;;21.79;53.98;101445.88;2076348;28;838;-65
2021/09/10 01:20:06;;;;;;;;;;;;;;;21.78;54.24;101447.72;2076337;28;993;-66
2021/09/10 01:21:06;;;;;;;;;;;;;;;21.77;54.60;101443.25;2083693;28;2063;-66
2021/09/10 01:22:07;;;;;;;;;;;;;;;21.75;54.29;101443.31;2082254;28;1829;-65
2021/09/10 01:23:07;;;;;;;;;;;;;;;21.76;54.20;101439.69;2083897;28;1164;-66
2021/09/10 01:24:07;;;;;;;;;;;;;;;21.76;54.43;101444.19;2078296;28;1633;-65
2021/09/10 01:25:11;;;;;;;;;;;;;;;21.78;53.99;101436.94;2076293;28;1671;-63
2021/09/10 01:26:11;;;;;;;;;;;;;;;21.79;54.54;101430.59;2076351;28;830;-65
2021/09/10 01:27:11;;;;;;;;;;;;;;;21.78;54.11;101436.94;2076350;28;771;-65
2021/09/10 01:28:12;;;;;;;;;;;;;;;21.79;54.33;101448.59;2076337;28;748;-65
2021/09/10 01:29:12;;;;;;;;;;;;;;;21.76;54.80;101453.16;2076339;28;807;-65
2021/09/10 01:30:15;;;;;;;;;;;;;;;21.77;53.88;101440.56;2076181;28;1417;-66
2021/09/10 01:31:15;;;;;;;;;;;;;;;21.78;54.26;101434.22;2076150;28;1961;-66
2021/09/10 01:32:15;;;;;;;;;;;;;;;21.78;54.28;101442.31;2083544;28;1629;-65
2021/09/10 01:33:15;;;;;;;;;;;;;;;21.76;54.22;101447.78;2084103;28;1913;-67
2021/09/10 01:34:15;;;;;;;;;;;;;;;21.76;53.92;101441.47;2084526;28;1024;-65
2021/09/10 01:35:16;;;;;;;;;;;;;;;21.75;54.34;101446.00;2084596;28;831;-65
2021/09/10 01:36:16;;;;;;;;;;;;;;;21.77;54.66;101452.25;2084340;28;819;-65
2021/09/10 01:37:17;;;;;;;;;;;;;;;21.76;54.56;101449.56;2082302;28;1822;-66
2021/09/10 01:38:17;;;;;;;;;;;;;;;21.74;54.75;101446.94;2076173;28;1697;-65
2021/09/10 01:39:17;;;;;;;;;;;;;;;21.76;54.26;101450.47;2067653;28;902;-66
2021/09/10 01:40:17;;;;;;;;;;;;;;;21.75;54.71;101448.69;2069252;28;1182;-65
2021/09/10 01:41:17;;;;;;;;;;;;;;;21.76;54.60;101450.47;2075198;28;1251;-66
2021/09/10 01:42:18;;;;;;;;;;;;;;;21.75;54.70;101448.69;2075518;28;1698;-65
2021/09/10 01:43:18;;;;;;;;;;;;;;;21.75;54.06;101450.50;2080593;28;1494;-65
2021/09/10 01:44:18;;;;;;;;;;;;;;;21.75;54.75;101453.19;2080829;28;1340;-66
2021/09/10 01:45:19;;;;;;;;;;;;;;;21.74;54.10;101452.31;2084414;28;1040;-65
2021/09/10 01:46:19;;;;;;;;;;;;;;;21.76;54.35;101454.97;2084254;28;871;-66
2021/09/10 01:47:19;;;;;;;;;;;;;;;21.75;54.01;101458.59;2081976;28;1567;-65
2021/09/10 01:48:19;;;;;;;;;;;;;;;21.77;54.20;101456.72;2084411;28;811;-67
2021/09/10 01:49:19;;;;;;;;;;;;;;;21.76;54.04;101460.34;2084339;28;989;-65
2021/09/10 01:50:20;;;;;;;;;;;;;;;21.75;54.43;101459.50;2081883;28;1750;-66
2021/09/10 01:51:33;;;;;;;;;;;;;;;21.75;54.75;101462.19;2076140;28;1961;-65
2021/09/10 01:52:34;;;;;;;;;;;;;;;21.75;54.50;101454.09;2075854;28;1064;-66
2021/09/10 01:53:34;;;;;;;;;;;;;;;21.76;54.49;101455.88;2076084;28;787;-65
2021/09/10 01:54:35;;;;;;;;;;;;;;;21.79;53.96;101462.06;2076165;28;839;-65
2021/09/10 01:55:35;;;;;;;;;;;;;;;21.75;54.01;101455.88;2075903;28;1812;-65
2021/09/10 01:56:35;;;;;;;;;;;;;;;21.78;54.12;101461.19;2076847;28;1361;-65
2021/09/10 01:57:35;;;;;;;;;;;;;;;21.76;54.37;101455.88;2084039;28;966;-65
2021/09/10 01:58:35;;;;;;;;;;;;;;;21.76;54.60;101455.88;2084163;28;974;-65
2021/09/10 01:59:36;;;;;;;;;;;;;;;21.76;54.34;101452.25;2084255;28;989;-67
2021/09/10 02:00:36;;;;;;;;;;;;;;;21.76;54.00;101455.88;2084320;28;906;-65
2021/09/10 02:01:37;;;;;;;;;;;;;;;21.74;53.88;101459.50;2082768;28;1870;-66
2021/09/10 02:02:37;;;;;;;;;;;;;;;21.76;54.41;101449.56;2076049;28;902;-65
2021/09/10 02:03:37;;;;;;;;;;;;;;;21.75;54.35;101454.09;2076043;28;1009;-65
2021/09/10 02:04:37;;;;;;;;;;;;;;;21.74;54.79;101460.41;2080072;28;1350;-65
2021/09/10 02:05:37;;;;;;;;;;;;;;;21.74;54.64;101451.44;2084207;28;843;-65
2021/09/10 02:06:38;;;;;;;;;;;;;;;21.76;53.90;101455.88;2083545;28;1674;-67
2021/09/10 02:07:38;;;;;;;;;;;;;;;21.76;54.10;101455.88;2083996;28;1453;-65
2021/09/10 02:08:38;;;;;;;;;;;;;;;21.76;54.17;101455.88;2083726;28;1544;-65
2021/09/10 02:09:39;;;;;;;;;;;;;;;21.75;54.06;101447.81;2084192;28;977;-65
2021/09/10 02:10:39;;;;;;;;;;;;;;;21.75;54.15;101443.31;2083299;28;1911;-65
2021/09/10 02:11:39;;;;;;;;;;;;;;;21.74;54.73;101446.94;2076452;28;2438;-65
2021/09/10 02:12:39;;;;;;;;;;;;;;;21.74;54.20;101452.31;2084204;28;1033;-64
2021/09/10 02:13:40;;;;;;;;;;;;;;;21.74;54.69;101455.03;2084188;28;1281;-66
2021/09/10 02:14:40;;;;;;;;;;;;;;;21.72;54.17;101454.19;2083972;28;753;-65
2021/09/10 02:15:40;;;;;;;;;;;;;;;21.74;54.00;101451.44;2084137;28;929;-66
2021/09/10 02:16:40;;;;;;;;;;;;;;;21.75;54.43;101453.19;2083522;28;1488;-65
2021/09/10 02:17:41;;;;;;;;;;;;;;;21.74;54.50;101444.25;2083663;28;1576;-65
2021/09/10 02:18:41;;;;;;;;;;;;;;;21.73;54.45;101445.16;2084142;28;1037;-65
2021/09/10 02:19:41;;;;;;;;;;;;;;;21.74;54.05;101430.75;2083974;28;954;-67
2021/09/10 02:20:41;;;;;;;;;;;;;;;21.74;54.60;101449.63;2084135;28;847;-66
2021/09/10 02:21:41;;;;;;;;;;;;;;;21.73;54.20;101444.25;2083804;28;1718;-65
2021/09/10 02:22:44;;;;;;;;;;;;;;;21.74;54.40;101436.16;2084157;28;1024;-65
2021/09/10 02:23:44;;;;;;;;;;;;;;;21.74;54.18;101444.25;2084058;28;807;-65
2021/09/10 02:24:44;;;;;;;;;;;;;;;21.73;53.92;101430.78;2084126;28;818;-65
2021/09/10 02:25:44;;;;;;;;;;;;;;;21.75;54.22;101435.22;2084013;28;1310;-64
2021/09/10 02:26:44;;;;;;;;;;;;;;;21.73;54.22;101436.19;2083787;28;1413;-67
2021/09/10 02:27:44;;;;;;;;;;;;;;;21.72;54.30;101443.41;2075108;28;1639;-65
2021/09/10 02:28:45;;;;;;;;;;;;;;;21.73;54.21;101447.88;2075379;28;692;-65
2021/09/10 02:29:45;;;;;;;;;;;;;;;21.75;53.97;101440.63;2083916;28;934;-66
2021/09/10 02:30:45;;;;;;;;;;;;;;;21.71;53.73;101444.31;2083925;28;1949;-67
2021/09/10 02:31:45;;;;;;;;;;;;;;;21.72;54.69;101448.78;2083749;28;1702;-65
2021/09/10 02:32:45;;;;;;;;;;;;;;;21.75;54.33;101446.00;2084006;28;1091;-66
2021/09/10 02:33:46;;;;;;;;;;;;;;;21.74;54.51;101441.53;2084046;28;768;-67
2021/09/10 02:34:46;;;;;;;;;;;;;;;21.73;53.93;101442.47;2084028;28;803;-65
2021/09/10 02:35:46;;;;;;;;;;;;;;;21.71;54.60;101433.53;2083849;28;839;-65
2021/09/10 02:36:46;;;;;;;;;;;;;;;21.73;54.10;101441.56;2081421;28;1418;-65
2021/09/10 02:37:46;;;;;;;;;;;;;;;21.76;54.08;101430.69;2075832;28;1405;-65
2021/09/10 02:38:47;;;;;;;;;;;;;;;21.73;53.99;101438.88;2078635;28;1585;-64
2021/09/10 02:39:47;;;;;;;;;;;;;;;21.74;54.64;101440.63;2075788;28;777;-66
2021/09/10 02:40:47;;;;;;;;;;;;;;;21.74;54.17;101438.84;2081478;28;1427;-64
2021/09/10 02:41:47;;;;;;;;;;;;;;;21.72;54.24;101438.00;2083808;28;1685;-65
2021/09/10 02:42:48;;;;;;;;;;;;;;;21.73;54.44;101439.78;2083919;28;961;-66
2021/09/10 02:43:48;;;;;;;;;;;;;;;21.72;54.34;101443.41;2083724;28;1047;-65
2021/09/10 02:44:48;;;;;;;;;;;;;;;21.73;54.14;101446.97;2083838;28;1064;-64
2021/09/10 02:45:49;;;;;;;;;;;;;;;21.76;54.74;101446.88;2083955;28;771;-65
2021/09/10 02:46:51;;;;;;;;;;;;;;;21.72;54.26;101448.78;2081127;28;1455;-67
2021/09/10 02:47:51;;;;;;;;;;;;;;;21.73;54.31;101449.66;2076823;28;1690;-64
2021/09/10 02:48:52;;;;;;;;;;;;;;;21.73;54.17;101436.19;2075750;28;981;-66
2021/09/10 02:49:52;;;;;;;;;;;;;;;21.71;54.30;101447.03;2075455;28;1406;-65
2021/09/10 02:50:52;;;;;;;;;;;;;;;21.73;53.98;101447.88;2075638;28;1955;-65
2021/09/10 02:51:52;;;;;;;;;;;;;;;21.72;54.70;101442.50;2075541;28;985;-64
2021/09/10 02:52:53;;;;;;;;;;;;;;;21.69;54.29;101394.94;2075662;28;974;-65
2021/09/10 02:53:53;;;;;;;;;;;;;;;21.72;54.24;101391.25;2082181;28;1426;-66
2021/09/10 02:54:53;;;;;;;;;;;;;;;21.72;54.64;101396.66;2083709;28;767;-65
2021/09/10 02:55:55;;;;;;;;;;;;;;;21.70;54.63;101391.31;2080383;28;1672;-67
2021/09/10 02:56:55;;;;;;;;;;;;;;;21.69;54.72;101383.25;2075697;28;1115;-65
2021/09/10 02:57:55;;;;;;;;;;;;;;;21.70;54.61;101387.72;2075296;28;751;-65
2021/09/10 02:58:56;;;;;;;;;;;;;;;21.69;54.46;101389.56;2075629;28;826;-65
2021/09/10 02:59:56;;;;;;;;;;;;;;;21.73;54.87;101482.91;2075650;28;1722;-67
2021/09/10 03:00:59;;;;;;;;;;;;;;;21.72;54.25;101456.88;2075565;28;969;-65
2021/09/10 03:01:59;;;;;;;;;;;;;;;21.72;54.09;101459.56;2075598;28;850;-65
2021/09/10 03:02:59;;;;;;;;;;;;;;;21.72;54.74;101456.88;2075513;28;899;-65
2021/09/10 03:03:59;;;;;;;;;;;;;;;21.71;54.39;101452.41;2075576;28;815;-66
2021/09/10 03:05:00;;;;;;;;;;;;;;;21.70;54.31;101450.66;2083118;28;1588;-65
2021/09/10 03:06:00;;;;;;;;;;;;;;;21.72;53.88;101459.56;2083626;28;755;-64
2021/09/10 03:07:00;;;;;;;;;;;;;;;21.71;54.25;101463.19;2080474;28;1705;-66
2021/09/10 03:08:00;;;;;;;;;;;;;;;21.71;54.83;101455.09;2075629;28;1458;-65
2021/09/10 03:09:01;;;;;;;;;;;;;;;21.72;54.12;101464.06;2075272;28;1381;-65
2021/09/10 03:10:02;;;;;;;;;;;;;;;21.73;54.50;101458.66;2075591;28;973;-66
2021/09/10 03:11:02;;;;;;;;;;;;;;;21.72;54.39;101464.06;2075470;28;1910;-67
2021/09/10 03:12:03;;;;;;;;;;;;;;;21.71;54.69;101452.41;2075456;28;1524;-65
2021/09/10 03:13:03;;;;;;;;;;;;;;;21.71;54.39;101438.03;2075460;28;1352;-65
2021/09/10 03:14:03;;;;;;;;;;;;;;;21.71;54.59;101433.53;2075368;28;771;-66
2021/09/10 03:15:04;;;;;;;;;;;;;;;21.71;54.24;101436.22;2075542;28;839;-65
2021/09/10 03:16:05;;;;;;;;;;;;;;;21.70;54.08;101433.56;2075479;28;1124;-65
2021/09/10 03:17:05;;;;;;;;;;;;;;;21.70;54.60;101438.97;2079863;28;1434;-65
2021/09/10 03:18:05;;;;;;;;;;;;;;;21.72;54.78;101440.69;2083670;28;839;-66
2021/09/10 03:19:05;;;;;;;;;;;;;;;21.71;54.61;101444.31;2083156;28;1590;-65
2021/09/10 03:20:06;;;;;;;;;;;;;;;21.72;54.31;101446.09;2083617;28;966;-65
2021/09/10 03:21:06;;;;;;;;;;;;;;;21.69;54.94;101446.19;2075011;28;935;-65
2021/09/10 03:22:07;;;;;;;;;;;;;;;21.71;54.85;101443.41;2074381;28;1442;-67
2021/09/10 03:23:07;;;;;;;;;;;;;;;21.70;54.76;101439.84;2083077;28;1452;-64
2021/09/10 03:24:07;;;;;;;;;;;;;;;21.71;54.49;101424.53;2083304;28;839;-66
2021/09/10 03:25:08;;;;;;;;;;;;;;;21.71;54.11;101429.94;2083624;28;760;-65
2021/09/10 03:26:08;;;;;;;;;;;;;;;21.70;54.98;101441.66;2083642;28;1003;-65
2021/09/10 03:27:08;;;;;;;;;;;;;;;21.68;54.93;101433.63;2077974;28;1409;-65
2021/09/10 03:28:09;;;;;;;;;;;;;;;21.70;54.93;101420.97;2075465;28;1040;-66
2021/09/10 03:29:09;;;;;;;;;;;;;;;21.69;55.11;101430.00;2075339;28;966;-66
2021/09/10 03:30:11;;;;;;;;;;;;;;;21.67;54.37;101423.75;2075346;28;965;-65
2021/09/10 03:31:11;;;;;;;;;;;;;;;21.66;54.42;101435.47;2078416;28;1902;-65
2021/09/10 03:32:12;;;;;;;;;;;;;;;21.69;54.33;101421.91;2083284;28;1475;-65
2021/09/10 03:33:12;;;;;;;;;;;;;;;21.71;54.47;101432.63;2079041;28;1424;-65
2021/09/10 03:34:12;;;;;;;;;;;;;;;21.70;54.04;101423.69;2080319;28;1575;-65
2021/09/10 03:35:12;;;;;;;;;;;;;;;21.72;54.26;101420.94;2075395;28;1710;-66
2021/09/10 03:36:12;;;;;;;;;;;;;;;21.70;54.85;101418.28;2075359;28;748;-65
2021/09/10 03:37:13;;;;;;;;;;;;;;;21.70;54.71;101434.47;2075370;28;816;-65
2021/09/10 03:38:13;;;;;;;;;;;;;;;21.72;54.35;101431.72;2081228;28;1525;-65
2021/09/10 03:39:14;;;;;;;;;;;;;;;21.71;54.48;101424.53;2080222;28;1663;-67
2021/09/10 03:40:14;;;;;;;;;;;;;;;21.69;54.35;101432.69;2083090;28;1407;-65
2021/09/10 03:41:14;;;;;;;;;;;;;;;21.69;54.73;101421.00;2083374;28;768;-64
2021/09/10 03:42:14;;;;;;;;;;;;;;;21.70;55.00;101420.09;2083533;28;1052;-66
2021/09/10 03:43:15;;;;;;;;;;;;;;;21.69;54.53;101421.91;2083524;28;1020;-65
2021/09/10 03:44:15;;;;;;;;;;;;;;;21.69;54.83;101424.59;2083061;28;772;-65
2021/09/10 03:45:15;;;;;;;;;;;;;;;21.69;55.08;101415.63;2083345;28;1669;-66
2021/09/10 03:46:15;;;;;;;;;;;;;;;21.67;54.83;101414.78;2083144;28;1869;-66
2021/09/10 03:47:15;;;;;;;;;;;;;;;21.67;55.19;101418.38;2081722;28;1610;-64
2021/09/10 03:48:16;;;;;;;;;;;;;;;21.68;54.21;101414.75;2083254;28;1418;-65
2021/09/10 03:49:16;;;;;;;;;;;;;;;21.68;55.09;101417.44;2075551;28;1574;-65
2021/09/10 03:50:16;;;;;;;;;;;;;;;21.68;54.51;101411.16;2075195;28;1412;-66
2021/09/10 03:51:16;;;;;;;;;;;;;;;21.68;55.03;101409.34;2075162;28;1955;-65
2021/09/10 03:52:16;;;;;;;;;;;;;;;21.68;55.06;101419.25;2075113;28;1072;-66
2021/09/10 03:53:17;;;;;;;;;;;;;;;21.68;55.06;101419.25;2075133;28;1156;-66
2021/09/10 03:54:17;;;;;;;;;;;;;;;21.70;54.68;101414.69;2075356;28;784;-67
2021/09/10 03:55:17;;;;;;;;;;;;;;;21.67;54.65;101415.69;2081059;28;1671;-66
2021/09/10 03:56:17;;;;;;;;;;;;;;;21.67;54.99;101412.97;2083428;28;824;-67
2021/09/10 03:57:18;;;;;;;;;;;;;;;21.69;54.83;101423.72;2083425;28;784;-65
2021/09/10 03:58:18;;;;;;;;;;;;;;;21.69;55.24;101418.31;2083402;28;969;-65
2021/09/10 03:59:18;;;;;;;;;;;;;;;21.70;55.32;101420.09;2083201;28;1585;-67
2021/09/10 04:00:18;;;;;;;;;;;;;;;21.70;55.00;101422.78;2079919;28;1405;-65
2021/09/10 04:01:18;;;;;;;;;;;;;;;21.68;54.70;101420.13;2075181;28;823;-65
2021/09/10 04:02:19;;;;;;;;;;;;;;;21.67;55.31;101417.47;2079326;28;1421;-65
2021/09/10 04:03:19;;;;;;;;;;;;;;;22.13;53.95;101420.63;2083063;28;1686;-65
2021/09/10 04:04:19;;;;;;;;;;;;;;;22.32;53.32;101426.31;2083156;28;1422;-65
2021/09/10 04:05:19;;;;;;;;;;;;;;;22.42;52.85;101424.19;2082982;28;1275;-63
2021/09/10 04:06:19;;;;;;;;;;;;;;;22.48;52.00;101421.34;2082975;28;1662;-67
2021/09/10 04:07:19;;;;;;;;;;;;;;;22.55;52.20;101411.25;2075338;28;1745;-67
2021/09/10 04:08:20;;;;;;;;;;;;;;;22.61;51.46;101411.91;2079880;28;1631;-69
2021/09/10 04:09:20;;;;;;;;;;;;;;;22.64;52.03;101409.09;2082479;28;1450;-65
2021/09/10 04:10:20;;;;;;;;;;;;;;;22.70;51.37;101408.00;2075396;28;1567;-65
2021/09/10 04:11:20;;;;;;;;;;;;;;;22.72;51.24;101414.25;2075114;28;1914;-66
2021/09/10 04:12:20;;;;;;;;;;;;;;;22.73;51.38;101407.03;2075117;28;845;-65
2021/09/10 04:13:21;;;;;;;;;;;;;;;22.76;51.19;101410.50;2075203;28;894;-64
2021/09/10 04:14:21;;;;;;;;;;;;;;;22.79;51.60;101407.69;2075024;28;1435;-63
2021/09/10 04:15:21;;;;;;;;;;;;;;;22.80;51.64;101406.75;2083112;28;1571;-63
2021/09/10 04:16:21;;;;;;;;;;;;;;;22.84;51.15;101412.06;2083112;28;978;-64
2021/09/10 04:17:21;;;;;;;;;;;;;;;22.84;51.26;101418.38;2076166;28;1734;-68
2021/09/10 04:18:21;;;;;;;;;;;;;;;22.87;51.60;101409.25;2070541;28;1460;-65
2021/09/10 04:19:21;;;;;;;;;;;;;;;22.89;51.14;101411.00;2071382;28;1410;-67
2021/09/10 04:20:22;;;;;;;;;;;;;;;22.89;51.01;101408.28;2075048;28;1442;-67
2021/09/10 04:21:22;;;;;;;;;;;;;;;22.91;51.10;101409.13;2066609;28;1745;-67
2021/09/10 04:22:22;;;;;;;;;;;;;;;22.93;51.22;101411.75;2066418;28;1697;-67
2021/09/10 04:23:22;;;;;;;;;;;;;;;22.97;50.98;101412.53;2078960;28;1591;-69
2021/09/10 04:24:24;;;;;;;;;;;;;;;22.99;51.08;101413.34;2078132;28;1592;-67
2021/09/10 04:25:24;;;;;;;;;;;;;;;22.98;50.68;101414.28;2083262;28;869;-69
2021/09/10 04:26:25;;;;;;;;;;;;;;;22.99;50.55;101414.25;2083203;28;794;-68
2021/09/10 04:27:25;;;;;;;;;;;;;;;23.00;51.22;101409.72;2083231;28;898;-69
2021/09/10 04:28:25;;;;;;;;;;;;;;;23.01;50.43;101414.19;2083232;28;1036;-68
2021/09/10 04:29:25;;;;;;;;;;;;;;;23.01;50.95;101411.47;2081793;28;1756;-68
2021/09/10 04:30:25;;;;;;;;;;;;;;;23.01;51.14;101408.78;2081681;28;1726;-68
2021/09/10 04:31:25;;;;;;;;;;;;;;;23.03;51.24;101412.31;2078562;28;1910;-66
2021/09/10 04:32:26;;;;;;;;;;;;;;;23.03;50.88;101410.50;2082260;28;1435;-70
2021/09/10 04:33:26;;;;;;;;;;;;;;;23.03;51.26;101409.59;2076939;28;1769;-67
2021/09/10 04:34:26;;;;;;;;;;;;;;;23.04;51.26;101406.88;2079066;28;1539;-68
2021/09/10 04:35:26;;;;;;;;;;;;;;;23.03;50.70;101415.00;2082714;28;1421;-67
2021/09/10 04:36:26;;;;;;;;;;;;;;;23.04;51.14;101414.97;2081256;28;1671;-67
2021/09/10 04:37:26;;;;;;;;;;;;;;;23.05;50.91;101414.03;2074970;28;1733;-67
2021/09/10 04:38:27;;;;;;;;;;;;;;;23.03;50.63;101413.22;2075086;28;1679;-67
2021/09/10 04:39:27;;;;;;;;;;;;;;;23.07;50.67;101409.47;2075007;28;1930;-68
2021/09/10 04:40:27;;;;;;;;;;;;;;;23.05;50.60;101413.13;2077476;28;1409;-66
2021/09/10 04:41:27;;;;;;;;;;;;;;;23.09;50.49;101412.09;2082921;28;1324;-68
2021/09/10 04:42:27;;;;;;;;;;;;;;;23.09;50.73;101412.09;2083172;28;746;-66
2021/09/10 04:43:27;;;;;;;;;;;;;;;23.09;50.40;101412.09;2082985;28;985;-67
2021/09/10 04:44:27;;;;;;;;;;;;;;;23.07;50.91;101409.47;2083125;28;1036;-66
2021/09/10 04:45:28;;;;;;;;;;;;;;;23.07;50.39;101409.47;2082508;28;1703;-67
2021/09/10 04:46:28;;;;;;;;;;;;;;;23.09;50.56;101407.59;2083121;28;764;-66
2021/09/10 04:47:28;;;;;;;;;;;;;;;23.09;51.15;101407.59;2081523;28;1418;-67
2021/09/10 04:48:28;;;;;;;;;;;;;;;23.10;50.59;101409.34;2082711;28;1565;-67
2021/09/10 04:49:28;;;;;;;;;;;;;;;23.10;50.18;101413.88;2074399;28;1023;-66
2021/09/10 04:50:29;;;;;;;;;;;;;;;23.12;50.77;101411.13;2070459;28;1969;-67
2021/09/10 04:51:29;;;;;;;;;;;;;;;23.10;50.88;101409.34;2075888;28;1429;-66
2021/09/10 04:52:29;;;;;;;;;;;;;;;23.12;51.31;101408.41;2082861;28;1413;-68
2021/09/10 04:53:29;;;;;;;;;;;;;;;23.13;50.13;101413.75;2083111;28;775;-66
2021/09/10 04:54:30;;;;;;;;;;;;;;;23.12;50.93;101412.00;2083159;28;871;-67
2021/09/10 04:55:30;;;;;;;;;;;;;;;23.13;50.58;101413.75;2082809;28;1418;-66
2021/09/10 04:56:30;;;;;;;;;;;;;;;23.14;50.19;101404.72;2074735;28;1568;-66
2021/09/10 04:57:30;;;;;;;;;;;;;;;23.15;51.04;101409.19;2080367;28;1731;-66
2021/09/10 04:58:30;;;;;;;;;;;;;;;23.15;50.25;101411.88;2082790;28;1679;-66
2021/09/10 04:59:30;;;;;;;;;;;;;;;23.14;50.85;101415.53;2082695;28;1729;-66
2021/09/10 05:00:30;;;;;;;;;;;;;;;23.15;50.21;101417.28;2077611;28;1414;-66
2021/09/10 05:01:32;;;;;;;;;;;;;;;23.16;50.69;101420.88;2074902;28;1588;-67
2021/09/10 05:02:32;;;;;;;;;;;;;;;23.17;50.96;101403.75;2074847;28;1723;-66
2021/09/10 05:03:32;;;;;;;;;;;;;;;23.15;50.49;101409.19;2074932;28;760;-67
2021/09/10 05:04:32;;;;;;;;;;;;;;;23.16;50.48;101408.25;2066123;28;915;-66
2021/09/10 05:05:32;;;;;;;;;;;;;;;23.19;51.07;101410.84;2066257;28;1020;-67
2021/09/10 05:06:33;;;;;;;;;;;;;;;23.20;50.85;101409.91;2075055;28;1399;-66
2021/09/10 05:07:33;;;;;;;;;;;;;;;23.17;50.88;101399.19;2080220;28;1421;-67
2021/09/10 05:08:33;;;;;;;;;;;;;;;23.18;50.73;101402.81;2079973;28;1410;-66
2021/09/10 05:09:33;;;;;;;;;;;;;;;23.17;50.23;101407.31;2074741;28;1190;-66
2021/09/10 05:10:33;;;;;;;;;;;;;;;23.18;50.45;101408.22;2074706;28;1918;-65
2021/09/10 05:11:33;;;;;;;;;;;;;;;23.19;50.43;101400.03;2074899;28;1647;-66
2021/09/10 05:12:34;;;;;;;;;;;;;;;23.20;50.90;101403.63;2074756;28;871;-66
2021/09/10 05:13:34;;;;;;;;;;;;;;;23.17;50.60;101407.31;2074728;28;786;-65
2021/09/10 05:14:34;;;;;;;;;;;;;;;23.17;50.97;101411.84;2074886;28;902;-66
2021/09/10 05:15:34;;;;;;;;;;;;;;;23.20;50.83;101404.50;2076876;28;1482;-66